Time;durP1;ratioP1;P1;durP2;ratioP2;P2;SDS_P1;SDS_P2;PMS_P1;PMS_P2;Temp;Humidity;BMP_temperature;BMP_pressure;BME280_temperature;BME280_humidity;BME280_pressure;Samples;Min_cycle;Max_cycle;Signal;HPM_P1;HPM_P2
2022/02/11 00:08:25;;;;;;;3.20;1.10;;;;;;;7.60;51.87;98789.66;3386328;29;20040;-75
2022/02/11 00:10:07;;;;;;;2.63;0.80;;;;;;;7.58;51.79;98796.97;3394742;29;20044;-74
2022/02/11 00:11:48;;;;;;;3.83;1.00;;;;;;;7.56;51.72;98796.34;3413641;28;20442;-75
2022/02/11 00:13:29;;;;;;;1.60;0.95;;;;;;;7.54;51.95;98795.75;3416152;28;20099;-75
2022/02/11 00:17:09;;;;;;;2.05;0.90;;;;;;;7.51;52.07;98782.84;3415830;28;20134;-79
2022/02/11 00:18:50;;;;;;;2.70;1.20;;;;;;;7.56;51.88;98796.34;3416043;28;20414;-76
2022/02/11 00:20:31;;;;;;;1.83;0.95;;;;;;;7.54;51.73;98798.41;3416183;28;20050;-76
2022/02/11 00:22:12;;;;;;;6.63;1.00;;;;;;;7.53;51.75;98800.22;3416224;28;20506;-76
2022/02/11 00:23:53;;;;;;;3.58;1.17;;;;;;;7.55;52.18;98807.97;3375621;29;20567;-77
2022/02/11 00:25:39;;;;;;;3.22;1.02;;;;;;;7.54;52.20;98798.41;3380391;29;20509;-80
2022/02/11 00:33:01;;;;;;;2.85;0.88;;;;;;;7.52;51.91;98795.13;3413442;28;20070;-77
2022/02/11 00:34:48;;;;;;;2.08;1.10;;;;;;;7.52;51.87;98792.47;3416035;28;20039;-78
2022/02/11 00:36:38;;;;;;;2.05;1.10;;;;;;;7.48;51.71;98791.22;3401138;29;20469;-78
2022/02/11 00:39:09;;;;;;;1.95;0.95;;;;;;;7.46;51.59;98785.28;3414183;28;20526;-78
2022/02/11 01:03:25;;;;;;;4.65;1.20;;;;;;;7.31;51.53;98783.59;3401204;29;20036;-76
2022/02/11 01:05:06;;;;;;;1.92;0.75;;;;;;;7.37;51.32;98793.41;3414016;28;20051;-76
2022/02/11 01:06:47;;;;;;;4.35;0.95;;;;;;;7.37;51.35;98784.63;3415213;28;20525;-75
2022/02/11 01:08:28;;;;;;;5.28;1.45;;;;;;;7.34;51.15;98780.53;3415496;28;20043;-75
2022/02/11 01:10:09;;;;;;;5.47;0.80;;;;;;;7.32;51.48;98777.28;3415586;28;20422;-76
2022/02/11 01:11:52;;;;;;;4.03;0.88;;;;;;;7.34;51.42;98780.53;3401266;29;21068;-77
2022/02/11 01:13:33;;;;;;;5.50;0.90;;;;;;;7.34;51.50;98780.53;3412979;28;20035;-76
2022/02/11 01:15:14;;;;;;;2.55;0.80;;;;;;;7.36;51.41;98789.13;3415478;28;20070;-75
2022/02/11 01:16:57;;;;;;;3.90;1.50;;;;;;;7.38;51.39;98789.75;3414699;28;20043;-76
2022/02/11 01:18:41;;;;;;;5.35;0.90;;;;;;;7.40;51.71;98790.34;3401053;29;20043;-75
2022/02/11 01:27:56;;;;;;;3.20;1.20;;;;;;;7.36;51.36;98770.56;3401653;29;20050;-76
2022/02/11 01:31:39;;;;;;;0.88;0.82;;;;;;;7.42;51.38;98771.63;3401796;29;20051;-76
2022/02/11 01:45:08;;;;;;;3.25;0.90;;;;;;;7.45;50.96;98765.91;3401643;29;20426;-75
2022/02/11 01:47:14;;;;;;;3.03;0.98;;;;;;;7.42;50.76;98767.13;3374942;29;20157;-74
2022/02/11 01:49:13;;;;;;;3.15;1.08;;;;;;;7.36;50.67;98762.63;3401151;29;20044;-75
2022/02/11 01:53:09;;;;;;;7.50;1.10;;;;;;;7.27;50.66;98750.53;3387821;29;20431;-76
2022/02/11 01:56:43;;;;;;;2.88;0.90;;;;;;;7.36;50.56;98767.91;3402278;29;20079;-78
2022/02/11 02:56:51;;;;;;;2.58;1.02;;;;;;;7.39;51.16;98742.84;3348346;29;20049;-77
2022/02/11 02:58:33;;;;;;;3.13;0.98;;;;;;;7.36;51.15;98746.72;3371237;29;20112;-78
2022/02/11 03:00:41;;;;;;;3.70;1.23;;;;;;;7.34;50.99;98740.78;3384465;29;20055;-78
2022/02/11 03:48:57;;;;;;;2.85;0.82;;;;;;;7.30;50.51;98736.88;3403430;29;20040;-79
2022/02/11 04:21:19;;;;;;;3.95;0.93;;;;;;;7.34;50.38;98732.03;3388873;29;20353;-76
2022/02/11 04:23:21;;;;;;;2.17;0.90;;;;;;;7.30;50.42;98728.94;3392974;29;20143;-76
2022/02/11 04:56:44;;;;;;;2.45;1.20;;;;;;;7.35;50.71;98734.47;3401180;29;20040;-75
2022/02/11 05:00:24;;;;;;;8.15;1.58;;;;;;;7.35;50.67;98736.31;3415499;28;20047;-76
2022/02/11 05:02:05;;;;;;;8.57;1.98;;;;;;;7.22;50.71;98719.31;3402481;29;20039;-76
2022/02/11 05:03:46;;;;;;;3.13;1.17;;;;;;;7.36;50.66;98738.75;3402210;29;20514;-76
2022/02/11 05:05:27;;;;;;;6.13;1.70;;;;;;;7.40;50.96;98741.81;3402735;29;20039;-77
2022/02/11 05:07:07;;;;;;;5.85;1.83;;;;;;;7.39;50.79;98741.00;3388619;29;20040;-80
2022/02/11 05:08:48;;;;;;;3.42;1.65;;;;;;;7.37;50.74;98748.34;3398975;29;20494;-77
2022/02/11 05:10:28;;;;;;;2.90;0.93;;;;;;;7.37;50.56;98758.13;3402250;29;20134;-80
2022/02/11 05:12:09;;;;;;;2.85;0.95;;;;;;;7.29;50.76;98743.22;3388380;29;20083;-79
2022/02/11 05:13:50;;;;;;;8.80;1.75;;;;;;;7.37;50.77;98761.59;3385527;29;20131;-78
2022/02/11 05:15:31;;;;;;;4.40;1.83;;;;;;;7.32;50.96;98740.16;3401926;28;20065;-80
2022/02/11 05:17:12;;;;;;;1.70;1.30;;;;;;;7.41;50.84;98764.69;3401518;29;20411;-79
2022/02/11 05:18:53;;;;;;;2.95;1.77;;;;;;;7.37;50.67;98758.94;3412922;28;20043;-79
2022/02/11 05:20:34;;;;;;;4.10;1.50;;;;;;;7.38;50.53;98757.09;3415813;28;20102;-80
2022/02/11 05:22:15;;;;;;;4.07;1.30;;;;;;;7.33;50.48;98752.41;3401018;29;20058;-76
2022/02/11 05:23:56;;;;;;;7.22;1.45;;;;;;;7.26;50.43;98756.84;3412399;28;20534;-76
2022/02/11 05:25:38;;;;;;;2.50;1.48;;;;;;;7.30;50.53;98760.75;3415386;28;20121;-75
2022/02/11 05:27:19;;;;;;;5.50;1.58;;;;;;;7.29;50.54;98753.81;3415247;28;20035;-76
2022/02/11 05:28:59;;;;;;;2.45;0.93;;;;;;;7.26;50.57;98748.09;3415583;28;20454;-78
2022/02/11 05:30:41;;;;;;;5.10;1.20;;;;;;;7.29;50.62;98761.75;3388133;29;20068;-76
2022/02/11 05:32:21;;;;;;;5.00;1.33;;;;;;;7.31;50.56;98767.69;3395940;29;20071;-78
2022/02/11 05:34:04;;;;;;;3.10;1.17;;;;;;;7.24;50.39;98748.28;3411861;28;20529;-76
2022/02/11 05:35:45;;;;;;;5.22;1.63;;;;;;;7.26;50.53;98756.84;3414791;28;20395;-75
2022/02/11 05:37:25;;;;;;;5.50;1.52;;;;;;;7.28;50.59;98760.13;3415067;28;20114;-77
2022/02/11 05:39:06;;;;;;;3.35;0.90;;;;;;;7.30;50.44;98771.34;3414847;28;20664;-77
2022/02/11 05:40:48;;;;;;;2.45;1.45;;;;;;;7.31;50.46;98766.88;3415138;28;20047;-75
2022/02/11 05:42:29;;;;;;;6.68;0.95;;;;;;;7.29;50.44;98767.06;3415264;28;20398;-77
2022/02/11 05:44:09;;;;;;;4.70;1.35;;;;;;;7.30;50.50;98760.75;3415220;28;20495;-79
2022/02/11 05:45:50;;;;;;;3.78;1.17;;;;;;;7.33;50.46;98763.03;3387804;29;20126;-76
2022/02/11 05:47:31;;;;;;;4.75;1.63;;;;;;;7.34;50.58;98769.13;3398526;29;20054;-78
2022/02/11 05:49:12;;;;;;;6.65;1.33;;;;;;;7.30;50.53;98759.94;3412262;28;20035;-79
2022/02/11 05:50:52;;;;;;;3.10;1.30;;;;;;;7.27;50.38;98758.47;3415104;28;20039;-77
2022/02/11 05:52:34;;;;;;;4.28;2.00;;;;;;;7.29;50.38;98759.13;3415374;28;20392;-78
2022/02/11 05:54:14;;;;;;;4.28;1.98;;;;;;;7.30;50.57;98762.56;3387694;29;20040;-76
2022/02/11 05:55:55;;;;;;;5.13;1.77;;;;;;;7.34;50.49;98764.66;3399144;29;20134;-75
2022/02/11 05:57:36;;;;;;;5.40;1.33;;;;;;;7.36;50.45;98770.56;3401590;29;20044;-75
2022/02/11 05:59:18;;;;;;;7.60;1.85;;;;;;;7.38;50.59;98771.19;3401603;29;20039;-76
2022/02/11 06:00:58;;;;;;;4.18;1.60;;;;;;;7.42;50.57;98776.91;3394578;29;20036;-76
2022/02/11 06:02:39;;;;;;;3.78;1.33;;;;;;;7.42;50.83;98771.63;3397385;29;20044;-76
2022/02/11 06:04:23;;;;;;;10.00;1.88;;;;;;;7.41;50.72;98770.81;3411851;28;20045;-77
2022/02/11 06:06:03;;;;;;;6.55;1.30;;;;;;;7.43;50.41;98768.78;3400764;29;20060;-77
2022/02/11 06:07:44;;;;;;;3.33;1.30;;;;;;;7.41;50.54;98757.56;3412097;28;20071;-75
2022/02/11 06:09:25;;;;;;;4.00;1.30;;;;;;;7.41;50.69;98768.16;3414737;28;20118;-75
2022/02/11 06:11:05;;;;;;;3.47;1.33;;;;;;;7.40;50.46;98774.44;3416045;28;20521;-75
2022/02/11 06:12:46;;;;;;;4.53;1.30;;;;;;;7.38;50.56;98768.56;3415280;28;20051;-76
2022/02/11 06:14:27;;;;;;;2.58;1.08;;;;;;;7.37;50.52;98768.72;3414464;28;20098;-77
2022/02/11 06:16:08;;;;;;;3.28;1.65;;;;;;;7.37;50.86;98769.53;3414738;28;20043;-78
2022/02/11 06:17:48;;;;;;;5.65;1.45;;;;;;;7.37;50.59;98766.91;3415227;28;20082;-78
2022/02/11 06:19:29;;;;;;;2.47;1.10;;;;;;;7.45;50.59;98770.41;3400067;29;20039;-77
2022/02/11 06:21:10;;;;;;;6.28;1.08;;;;;;;7.45;50.66;98765.91;3411451;28;20039;-77
2022/02/11 06:22:51;;;;;;;5.60;2.08;;;;;;;7.45;50.59;98765.91;3414659;28;20493;-77
2022/02/11 06:24:31;;;;;;;6.57;1.70;;;;;;;7.46;50.66;98772.03;3414900;28;20039;-77
2022/02/11 06:26:12;;;;;;;6.22;1.58;;;;;;;7.46;50.72;98769.38;3416187;28;20414;-76
2022/02/11 06:27:59;;;;;;;3.15;1.55;;;;;;;7.46;50.92;98764.91;3414119;28;20069;-80
2022/02/11 06:29:41;;;;;;;2.05;1.35;;;;;;;7.50;50.69;98771.44;3400715;28;20055;-78
2022/02/11 06:31:22;;;;;;;3.03;1.40;;;;;;;7.49;50.78;98767.16;3398592;29;20123;-80
2022/02/11 06:33:03;;;;;;;4.50;1.77;;;;;;;7.47;50.57;98763.06;3412621;28;20039;-78
2022/02/11 06:34:44;;;;;;;4.40;1.77;;;;;;;7.47;50.46;98768.38;3415177;28;20051;-77
2022/02/11 06:36:25;;;;;;;3.63;1.48;;;;;;;7.44;50.74;98761.63;3398928;29;21068;-75
2022/02/11 06:38:07;;;;;;;4.30;1.23;;;;;;;7.45;50.77;98770.41;3425133;28;20062;-77
2022/02/11 06:39:48;;;;;;;5.50;1.27;;;;;;;7.46;50.83;98772.03;3428945;28;20406;-78
2022/02/11 06:41:29;;;;;;;3.40;1.45;;;;;;;7.44;50.94;98759.00;3418833;28;20047;-79
2022/02/11 06:43:14;;;;;;;5.88;1.30;;;;;;;7.47;50.79;98760.44;3400770;29;20044;-77
2022/02/11 06:44:54;;;;;;;6.18;1.80;;;;;;;7.51;51.16;98764.31;3412513;28;20046;-76
2022/02/11 06:46:35;;;;;;;3.78;1.88;;;;;;;7.52;51.23;98760.66;3414445;28;20047;-79
2022/02/11 06:48:23;;;;;;;5.25;1.50;;;;;;;7.54;51.11;98759.44;3414622;28;20045;-78
2022/02/11 06:50:04;;;;;;;2.63;1.40;;;;;;;7.58;51.14;98776.56;3415503;28;20089;-78
2022/02/11 06:51:45;;;;;;;11.00;3.77;;;;;;;7.62;51.23;98772.53;3415332;28;20146;-76
2022/02/11 06:53:26;;;;;;;4.30;1.30;;;;;;;7.64;51.30;98762.53;3401135;29;20343;-77
2022/02/11 06:55:08;;;;;;;2.20;1.42;;;;;;;7.67;51.38;98763.13;3400701;29;20047;-75
2022/02/11 06:56:48;;;;;;;5.55;1.60;;;;;;;7.64;51.15;98754.59;3410903;28;20211;-77
2022/02/11 06:58:29;;;;;;;4.57;1.55;;;;;;;7.64;51.06;98759.88;3405527;29;20097;-79
2022/02/11 07:00:12;;;;;;;3.95;1.65;;;;;;;7.60;51.01;98755.16;3415514;28;20070;-77
2022/02/11 07:01:53;;;;;;;4.07;1.70;;;;;;;7.70;51.04;98771.53;3414165;28;20039;-78
2022/02/11 07:03:33;;;;;;;6.35;1.95;;;;;;;7.69;51.18;98759.25;3399942;29;20553;-76
2022/02/11 07:05:14;;;;;;;5.55;1.60;;;;;;;7.78;51.27;98765.22;3396858;29;20063;-77
2022/02/11 07:06:55;;;;;;;4.88;2.00;;;;;;;7.79;51.18;98764.19;3411484;28;20530;-77
2022/02/11 07:08:35;;;;;;;5.47;1.95;;;;;;;7.85;51.23;98764.25;3414880;28;20043;-76
2022/02/11 07:10:16;;;;;;;4.47;2.20;;;;;;;7.89;51.18;98758.53;3414742;28;20470;-77
2022/02/11 07:11:57;;;;;;;4.43;1.65;;;;;;;7.91;50.88;98761.81;3414656;28;20066;-77
2022/02/11 07:13:38;;;;;;;7.38;1.98;;;;;;;7.95;51.07;98755.06;3414430;28;20039;-77
2022/02/11 07:15:18;;;;;;;2.75;1.50;;;;;;;8.03;51.23;98768.16;3414977;28;20043;-78
2022/02/11 07:17:00;;;;;;;4.88;1.63;;;;;;;8.09;51.32;98768.16;3424398;28;20069;-77
2022/02/11 07:18:41;;;;;;;3.72;2.30;;;;;;;8.18;51.28;98763.47;3415305;28;20458;-77
2022/02/11 07:20:22;;;;;;;2.73;1.40;;;;;;;8.22;51.29;98756.75;3414675;28;20126;-76
2022/02/11 07:22:03;;;;;;;5.85;1.35;;;;;;;8.26;51.17;98759.81;3400273;29;20439;-78
2022/02/11 07:23:44;;;;;;;2.25;1.60;;;;;;;8.32;51.20;98766.97;3400607;29;20094;-80
2022/02/11 07:25:25;;;;;;;3.58;1.75;;;;;;;8.36;50.98;98767.38;3413454;28;20450;-79
2022/02/11 07:27:09;;;;;;;3.92;1.33;;;;;;;8.35;51.03;98757.78;3417622;28;20042;-76
2022/02/11 07:28:52;;;;;;;10.95;1.85;;;;;;;8.43;51.15;98762.94;3418028;28;20479;-80
2022/02/11 07:30:33;;;;;;;5.45;1.65;;;;;;;8.46;51.22;98766.00;3418747;28;20081;-78
2022/02/11 07:32:16;;;;;;;5.22;1.77;;;;;;;8.51;51.21;98771.50;3390457;29;20048;-74
2022/02/11 07:33:57;;;;;;;11.07;1.90;;;;;;;8.49;51.06;98762.94;3411514;28;20050;-79
2022/02/11 07:35:38;;;;;;;4.22;1.55;;;;;;;8.54;50.79;98769.47;3427942;28;20177;-77
2022/02/11 07:37:22;;;;;;;5.43;1.77;;;;;;;8.55;50.96;98771.94;3402494;29;20044;-78
2022/02/11 07:39:05;;;;;;;4.72;1.80;;;;;;;8.57;50.92;98775.22;3413754;28;20062;-78
2022/02/11 07:40:48;;;;;;;6.40;2.33;;;;;;;8.45;50.59;98750.28;3407358;29;20591;-75
2022/02/11 07:42:30;;;;;;;5.93;2.15;;;;;;;8.60;50.71;98768.66;3414780;28;20098;-76
2022/02/11 07:44:11;;;;;;;6.13;2.20;;;;;;;8.68;50.85;98771.94;3401975;29;20522;-75
2022/02/11 07:45:51;;;;;;;3.08;1.48;;;;;;;8.73;50.91;98768.66;3414163;28;20071;-73
2022/02/11 07:47:33;;;;;;;2.95;1.50;;;;;;;8.79;50.95;98767.03;3417045;28;20039;-72
2022/02/11 07:49:14;;;;;;;6.97;1.70;;;;;;;8.85;51.02;98758.22;3416807;28;20043;-78
2022/02/11 07:50:55;;;;;;;6.28;2.17;;;;;;;8.91;51.15;98765.38;3416738;28;20105;-75
2022/02/11 07:52:40;;;;;;;14.50;1.38;;;;;;;8.95;51.06;98759.41;3404922;29;20035;-76
2022/02/11 07:54:21;;;;;;;4.95;1.60;;;;;;;9.02;50.77;98761.28;3376708;29;20040;-78
2022/02/11 07:56:03;;;;;;;11.10;1.83;;;;;;;9.09;50.65;98757.56;3398394;29;20488;-75
2022/02/11 07:57:43;;;;;;;4.03;1.63;;;;;;;9.15;50.94;98755.91;3376656;29;20037;-77
2022/02/11 07:59:24;;;;;;;5.82;1.88;;;;;;;9.22;50.75;98754.06;3386810;29;20079;-76
2022/02/11 08:01:08;;;;;;;5.43;2.28;;;;;;;9.31;50.73;98754.66;3401079;29;20067;-77
2022/02/11 08:02:49;;;;;;;8.38;1.58;;;;;;;9.38;50.61;98750.13;3376259;29;20603;-75
2022/02/11 08:04:30;;;;;;;6.05;1.98;;;;;;;9.41;50.70;98749.69;3397726;29;20044;-77
2022/02/11 08:06:11;;;;;;;7.93;2.15;;;;;;;9.49;50.67;98751.31;3402667;29;20188;-75
2022/02/11 08:07:52;;;;;;;6.47;1.92;;;;;;;9.53;50.46;98757.84;3403197;29;20035;-76
2022/02/11 08:09:32;;;;;;;5.93;1.92;;;;;;;9.57;50.29;98757.19;3390437;29;20448;-76
2022/02/11 08:11:13;;;;;;;7.82;2.17;;;;;;;9.55;50.10;98753.13;3391815;29;20051;-78
2022/02/11 08:12:55;;;;;;;4.82;1.70;;;;;;;9.62;50.03;98751.25;3403022;29;20058;-77
2022/02/11 08:14:36;;;;;;;;;;;;;;;9.72;49.92;98759.59;3406011;29;20645;-77
2022/02/11 08:16:17;;;;;;;5.13;2.50;;;;;;;9.68;49.91;98761.06;3404040;29;19958;-78
2022/02/11 08:17:57;;;;;;;7.70;2.90;;;;;;;9.70;49.90;98755.50;3403474;29;20113;-78
2022/02/11 08:19:38;;;;;;;5.15;2.15;;;;;;;9.76;49.82;98755.50;3389513;29;20446;-77
2022/02/11 08:21:19;;;;;;;8.60;3.17;;;;;;;9.81;49.70;98754.88;3402459;29;20047;-77
2022/02/11 08:23:00;;;;;;;13.57;2.33;;;;;;;9.82;49.53;98751.97;3406519;29;20534;-78
2022/02/11 08:24:41;;;;;;;7.53;2.00;;;;;;;9.91;49.15;98759.72;3405415;29;20126;-78
2022/02/11 08:26:21;;;;;;;6.45;1.83;;;;;;;9.99;49.19;98757.63;3389875;29;20127;-75
2022/02/11 08:28:02;;;;;;;6.00;1.80;;;;;;;10.12;48.88;98766.53;3399711;29;20122;-77
2022/02/11 08:29:45;;;;;;;6.97;2.00;;;;;;;10.19;48.91;98759.34;3403645;29;20070;-79
2022/02/11 08:31:27;;;;;;;8.27;2.83;;;;;;;10.33;48.55;98760.94;3388826;29;20040;-78
2022/02/11 08:33:08;;;;;;;6.47;1.80;;;;;;;10.39;48.50;98762.72;3400575;29;20047;-76
2022/02/11 08:34:49;;;;;;;4.97;2.38;;;;;;;10.48;48.57;98764.09;3403376;29;20075;-77
2022/02/11 08:36:32;;;;;;;9.98;2.70;;;;;;;10.54;48.61;98761.59;3404848;29;20094;-79
2022/02/11 08:38:12;;;;;;;2.65;2.20;;;;;;;10.64;48.29;98756.59;3390896;29;20107;-79
2022/02/11 08:39:53;;;;;;;4.25;1.85;;;;;;;10.70;48.29;98758.38;3401488;29;20183;-76
2022/02/11 08:41:34;;;;;;;4.63;2.80;;;;;;;10.74;48.04;98758.75;3397849;29;20043;-80
2022/02/11 08:43:15;;;;;;;5.78;1.80;;;;;;;10.80;47.98;98761.38;3413337;28;20043;-81
2022/02/11 08:44:56;;;;;;;7.47;2.28;;;;;;;10.87;47.98;98756.78;3416158;28;20062;-81
2022/02/11 08:46:37;;;;;;;6.65;1.95;;;;;;;10.94;47.93;98762.03;3416301;28;20043;-79
2022/02/11 08:48:18;;;;;;;6.13;2.08;;;;;;;11.02;47.71;98756.47;3416341;28;20047;-79
2022/02/11 08:50:00;;;;;;;3.85;1.90;;;;;;;11.19;47.75;98767.34;3415836;28;20042;-78
2022/02/11 08:51:41;;;;;;;3.25;1.80;;;;;;;11.29;47.62;98758.84;3401924;29;20044;-81
2022/02/11 08:53:22;;;;;;;3.78;1.90;;;;;;;11.34;47.48;98751.78;3413363;28;20079;-78
2022/02/11 08:55:03;;;;;;;6.78;2.13;;;;;;;11.43;47.17;98752.31;3416363;28;20498;-78
2022/02/11 08:56:44;;;;;;;8.65;2.47;;;;;;;11.45;47.19;98763.56;3416225;28;20050;-77
2022/02/11 08:58:25;;;;;;;10.75;2.17;;;;;;;11.45;47.28;98752.91;3401579;29;20123;-77
2022/02/11 09:00:06;;;;;;;6.18;1.67;;;;;;;11.49;47.17;98758.63;3412909;28;20102;-77
2022/02/11 09:01:47;;;;;;;6.18;2.05;;;;;;;11.50;47.08;98749.56;3415714;28;20047;-77
2022/02/11 09:03:28;;;;;;;7.50;2.15;;;;;;;11.55;46.74;98760.38;3415380;28;20043;-77
2022/02/11 09:05:09;;;;;;;6.97;2.20;;;;;;;11.59;46.58;98753.56;3401175;29;20369;-76
2022/02/11 09:06:50;;;;;;;9.10;1.75;;;;;;;11.72;46.51;98760.56;3412709;28;20051;-78
2022/02/11 09:08:33;;;;;;;6.00;2.15;;;;;;;11.79;46.19;98764.78;3417695;28;20125;-75
2022/02/11 09:10:14;;;;;;;6.63;2.50;;;;;;;11.93;46.08;98751.31;3412040;28;20046;-76
2022/02/11 09:11:55;;;;;;;7.20;1.85;;;;;;;12.28;45.63;98745.25;3413813;28;20043;-78
2022/02/11 09:13:37;;;;;;;9.13;2.60;;;;;;;12.58;45.30;98748.69;3416084;28;20531;-76
2022/02/11 09:15:19;;;;;;;9.55;1.85;;;;;;;12.76;45.25;98750.44;3402032;29;20040;-76
2022/02/11 09:17:00;;;;;;;3.00;1.92;;;;;;;12.86;45.06;98739.19;3402783;29;20043;-79
2022/02/11 09:18:41;;;;;;;5.53;2.30;;;;;;;13.00;44.67;98750.44;3420922;28;20403;-76
2022/02/11 09:20:22;;;;;;;7.07;1.80;;;;;;;13.14;44.74;98751.00;3415758;28;20578;-75
2022/02/11 09:22:03;;;;;;;9.82;2.10;;;;;;;13.20;44.78;98744.75;3415638;28;20050;-74
2022/02/11 09:23:44;;;;;;;3.27;1.87;;;;;;;13.42;44.54;98748.44;3417151;28;20043;-79
2022/02/11 09:25:26;;;;;;;5.45;1.48;;;;;;;13.65;44.39;98750.22;3429772;28;20039;-76
2022/02/11 09:27:07;;;;;;;4.57;1.65;;;;;;;13.71;44.28;98745.81;3429017;28;20062;-76
2022/02/11 09:28:48;;;;;;;8.73;2.50;;;;;;;13.73;44.03;98746.38;3420717;28;20040;-77
2022/02/11 09:30:29;;;;;;;7.75;2.40;;;;;;;13.75;44.04;98749.63;3429064;28;20138;-77
2022/02/11 09:32:09;;;;;;;5.33;2.03;;;;;;;13.70;43.81;98746.84;3428814;28;20581;-76
2022/02/11 09:33:55;;;;;;;3.75;1.83;;;;;;;13.56;43.94;98746.31;3428464;28;20123;-76
2022/02/11 09:35:36;;;;;;;6.53;1.95;;;;;;;13.42;44.20;98750.31;3400546;29;20044;-76
2022/02/11 09:37:17;;;;;;;8.63;1.80;;;;;;;13.26;44.22;98749.13;3395691;29;20546;-77
2022/02/11 09:38:58;;;;;;;6.32;1.60;;;;;;;13.10;44.16;98756.03;3410403;28;20204;-75
2022/02/11 09:40:43;;;;;;;5.75;2.58;;;;;;;12.95;44.09;98753.00;3412892;28;20031;-75
2022/02/11 09:42:25;;;;;;;8.23;2.33;;;;;;;12.82;43.98;98754.06;3414345;28;20051;-77
2022/02/11 09:44:07;;;;;;;4.43;1.52;;;;;;;12.82;43.77;98759.41;3400565;29;20681;-78
2022/02/11 09:45:47;;;;;;;5.15;2.10;;;;;;;13.03;43.49;98761.47;3412963;28;20097;-76
2022/02/11 09:47:28;;;;;;;3.85;1.50;;;;;;;13.36;43.01;98741.34;3401401;29;20044;-77
2022/02/11 09:49:09;;;;;;;5.60;1.73;;;;;;;13.56;42.59;98754.34;3398748;29;20174;-78
2022/02/11 09:50:55;;;;;;;7.07;1.85;;;;;;;13.61;42.28;98751.78;3412383;28;20074;-75
2022/02/11 09:52:41;;;;;;;6.70;1.88;;;;;;;13.66;41.88;98753.75;3415638;28;20051;-79
2022/02/11 09:54:22;;;;;;;4.85;1.88;;;;;;;13.71;42.18;98761.88;3402544;29;20134;-76
2022/02/11 09:56:04;;;;;;;5.37;2.67;;;;;;;13.77;41.82;98760.91;3385700;29;20409;-78
2022/02/11 09:57:45;;;;;;;7.53;1.88;;;;;;;13.69;41.62;98747.91;3395864;29;20301;-72
2022/02/11 09:59:29;;;;;;;5.47;1.80;;;;;;;13.68;41.52;98757.81;3412043;28;20035;-75
2022/02/11 10:01:10;;;;;;;6.78;1.92;;;;;;;13.60;41.72;98749.31;3414108;28;20039;-75
2022/02/11 10:02:52;;;;;;;5.13;1.60;;;;;;;13.57;41.53;98755.16;3414180;28;20039;-73
2022/02/11 10:04:33;;;;;;;6.43;1.25;;;;;;;13.52;41.78;98751.31;3400018;29;20054;-73
2022/02/11 10:06:14;;;;;;;6.43;2.70;;;;;;;13.54;41.80;98756.44;3411361;28;20070;-73
2022/02/11 10:07:56;;;;;;;7.53;2.03;;;;;;;13.56;41.99;98748.19;3400223;29;20043;-75
2022/02/11 10:09:41;;;;;;;8.70;2.83;;;;;;;13.63;42.02;98757.72;3396899;29;20142;-73
2022/02/11 10:11:24;;;;;;;9.23;2.15;;;;;;;13.62;41.79;98747.22;3401416;29;20048;-74
2022/02/11 10:13:07;;;;;;;7.15;2.70;;;;;;;13.64;41.88;98750.50;3410545;28;20480;-75
2022/02/11 10:14:47;;;;;;;6.78;1.88;;;;;;;13.65;41.92;98760.13;3415316;28;20106;-72
2022/02/11 10:16:29;;;;;;;8.32;2.65;;;;;;;13.65;42.06;98752.09;3414528;28;20097;-73
2022/02/11 10:18:12;;;;;;;6.28;1.80;;;;;;;13.65;42.13;98746.75;3408384;28;20039;-75
2022/02/11 10:19:55;;;;;;;4.60;1.60;;;;;;;13.65;42.14;98755.59;3413816;28;20102;-74
2022/02/11 10:21:36;;;;;;;7.10;2.20;;;;;;;13.42;42.08;98716.31;3417131;28;20043;-74
2022/02/11 10:23:23;;;;;;;7.20;2.00;;;;;;;13.55;41.99;98751.91;3428291;28;20050;-76
2022/02/11 10:25:06;;;;;;;4.50;2.08;;;;;;;13.48;41.99;98754.72;3428389;28;20146;-73
2022/02/11 10:26:52;;;;;;;4.38;1.80;;;;;;;13.37;41.71;98748.34;3401626;29;20078;-75
2022/02/11 10:28:38;;;;;;;8.85;1.80;;;;;;;13.14;41.72;98729.59;3389725;29;20059;-75
2022/02/11 10:30:23;;;;;;;4.38;1.75;;;;;;;13.09;41.51;98727.66;3410760;28;20050;-76
2022/02/11 10:32:04;;;;;;;6.75;1.75;;;;;;;13.16;41.36;98751.59;3426239;28;20121;-75
2022/02/11 10:33:56;;;;;;;5.78;1.95;;;;;;;13.16;41.17;98754.28;3423783;28;20502;-76
2022/02/11 10:35:39;;;;;;;4.82;1.75;;;;;;;13.09;41.42;98760.56;3416510;28;20051;-74
2022/02/11 10:37:20;;;;;;;6.22;2.15;;;;;;;13.01;41.50;98757.41;3385344;29;20523;-73
2022/02/11 10:39:06;;;;;;;5.05;2.45;;;;;;;12.96;41.71;98752.78;3421573;28;20049;-74
2022/02/11 10:40:47;;;;;;;6.38;2.10;;;;;;;12.86;41.77;98749.88;3408465;28;20047;-74
2022/02/11 10:42:43;;;;;;;7.32;2.40;;;;;;;12.89;41.77;98754.75;3414462;28;20039;-74
2022/02/11 10:44:34;;;;;;;6.78;1.83;;;;;;;12.78;41.89;98755.56;3414518;28;20601;-73
2022/02/11 10:46:16;;;;;;;7.13;1.83;;;;;;;12.70;42.05;98753.22;3413490;28;20146;-74
2022/02/11 10:48:08;;;;;;;4.63;1.73;;;;;;;12.69;42.33;98756.94;3414238;28;20126;-75
2022/02/11 10:49:51;;;;;;;7.07;1.88;;;;;;;12.59;42.79;98752.97;3414454;28;20047;-75
2022/02/11 10:51:32;;;;;;;3.60;1.58;;;;;;;12.53;42.87;98751.22;3414508;28;20043;-76
2022/02/11 10:53:21;;;;;;;6.80;2.53;;;;;;;12.51;42.98;98752.50;3422342;28;20069;-75
2022/02/11 10:55:02;;;;;;;5.88;2.10;;;;;;;12.43;43.22;98753.66;3416062;28;20423;-73
2022/02/11 10:56:43;;;;;;;4.47;2.20;;;;;;;12.33;43.29;98756.06;3427691;28;20047;-75
2022/02/11 10:58:25;;;;;;;5.03;1.90;;;;;;;12.25;43.51;98754.53;3427984;28;20050;-76
2022/02/11 11:00:07;;;;;;;7.88;1.75;;;;;;;12.18;43.82;98752.00;3403543;28;20054;-76
2022/02/11 11:01:50;;;;;;;6.82;2.80;;;;;;;12.12;44.25;98755.56;3411950;28;20050;-74
2022/02/11 11:03:34;;;;;;;5.90;1.38;;;;;;;12.06;44.57;98761.00;3399933;29;20043;-74
2022/02/11 11:05:15;;;;;;;11.00;2.25;;;;;;;11.99;44.97;98756.56;3411971;28;20047;-76
2022/02/11 11:06:57;;;;;;;5.97;1.77;;;;;;;11.96;45.46;98756.19;3413844;28;20075;-75
2022/02/11 11:08:39;;;;;;;3.67;1.55;;;;;;;11.91;45.82;98762.22;3413905;28;20043;-79
2022/02/11 11:10:22;;;;;;;8.50;1.83;;;;;;;11.82;45.98;98766.19;3413270;28;20137;-75
2022/02/11 11:12:04;;;;;;;12.07;1.83;;;;;;;11.77;46.05;98768.72;3411526;28;20042;-76
2022/02/11 11:13:48;;;;;;;8.43;1.60;;;;;;;11.66;46.41;98756.94;3408765;28;20050;-78
2022/02/11 11:15:29;;;;;;;5.38;1.55;;;;;;;11.58;46.09;98751.94;3390055;29;20111;-79
2022/02/11 11:17:11;;;;;;;12.13;1.52;;;;;;;11.39;46.21;98729.78;3405970;28;20040;-81
2022/02/11 11:18:54;;;;;;;9.02;1.83;;;;;;;11.57;46.54;98763.66;3408136;28;20109;-74
2022/02/11 11:20:35;;;;;;;4.35;1.70;;;;;;;11.41;46.58;98748.22;3411745;28;20093;-76
2022/02/11 11:22:26;;;;;;;10.05;2.35;;;;;;;11.51;46.68;98765.38;3397905;28;20207;-80
2022/02/11 11:24:07;;;;;;;4.03;1.75;;;;;;;11.44;46.20;98767.28;3407800;28;20134;-77
2022/02/11 11:26:08;;;;;;;8.63;1.83;;;;;;;11.40;45.99;98767.94;3382268;29;20047;-79
2022/02/11 11:27:57;;;;;;;6.57;2.38;;;;;;;11.27;45.58;98764.38;3414023;28;20050;-77
2022/02/11 11:29:39;;;;;;;6.45;1.75;;;;;;;11.16;45.52;98757.13;3400494;29;20573;-80
2022/02/11 11:31:27;;;;;;;11.88;3.60;;;;;;;11.13;45.17;98757.56;3400201;29;20474;-79
2022/02/11 11:33:08;;;;;;;7.43;1.90;;;;;;;11.04;45.10;98762.34;3387662;28;20052;-79
2022/02/11 11:35:06;;;;;;;4.35;1.60;;;;;;;11.02;44.89;98766.28;3397484;29;20091;-79
2022/02/11 11:36:54;;;;;;;7.03;2.17;;;;;;;10.88;44.57;98761.09;3400070;29;20067;-80
2022/02/11 11:38:44;;;;;;;6.78;1.90;;;;;;;10.81;44.29;98752.31;3393937;29;20135;-77
2022/02/11 11:40:25;;;;;;;4.22;2.05;;;;;;;10.68;44.30;98736.47;3408513;28;20051;-79
2022/02/11 11:42:14;;;;;;;3.10;1.70;;;;;;;10.75;44.08;98763.88;3403275;29;20035;-79
2022/02/11 11:43:59;;;;;;;5.95;1.50;;;;;;;10.69;44.00;98760.22;3360497;29;20515;-77
2022/02/11 11:45:43;;;;;;;4.53;1.73;;;;;;;10.62;43.96;98762.13;3405287;28;20082;-79
2022/02/11 11:47:33;;;;;;;5.95;1.48;;;;;;;10.60;43.69;98768.72;3412774;28;20039;-80
2022/02/11 11:49:18;;;;;;;5.68;1.70;;;;;;;10.47;43.87;98758.97;3413597;28;20098;-75
2022/02/11 11:51:03;;;;;;;3.13;1.50;;;;;;;10.45;43.78;98759.22;3402011;29;20043;-79
2022/02/11 11:52:51;;;;;;;6.13;1.65;;;;;;;10.40;43.73;98755.53;3400739;29;20579;-80
2022/02/11 11:54:33;;;;;;;4.50;1.70;;;;;;;10.40;43.66;98764.38;3398628;29;20075;-80
2022/02/11 11:56:39;;;;;;;7.55;2.17;;;;;;;10.42;43.65;98767.59;3401173;28;20102;-79
2022/02/11 11:58:45;;;;;;;3.80;1.85;;;;;;;10.40;43.90;98769.69;3415315;28;20042;-81
2022/02/11 12:00:37;;;;;;;8.18;1.92;;;;;;;10.35;43.75;98771.34;3414411;28;20047;-82